createdAt,value
2022-12-19T00:00:34.283Z,80.86
2022-12-19T00:05:39.251Z,80.06
2022-12-19T00:10:41.604Z,80.16
2022-12-19T00:15:43.464Z,80.42
2022-12-19T00:20:45.299Z,82.93
2022-12-19T00:25:47.087Z,84.11
2022-12-19T00:30:51.751Z,83.58
2022-12-19T00:36:22.930Z,84.85
2022-12-19T00:41:26.359Z,84.89
2022-12-19T00:46:32.782Z,85.16
2022-12-19T00:51:36.749Z,84.76
2022-12-19T00:56:38.697Z,84.15
2022-12-19T01:01:43.728Z,84.85
2022-12-19T01:06:48.409Z,85.17
2022-12-19T01:12:09.263Z,84.50
2022-12-19T01:17:11.752Z,82.01
2022-12-19T01:22:14.099Z,80.22
2022-12-19T01:27:16.455Z,80.23
2022-12-19T01:32:18.203Z,80.27
2022-12-19T01:37:20.629Z,80.58
2022-12-19T01:42:24.266Z,81.05
2022-12-19T01:47:26.433Z,83.16
2022-12-19T01:52:28.356Z,84.25
2022-12-19T01:57:30.229Z,84.63
2022-12-19T02:02:36.064Z,84.85
2022-12-19T02:07:39.861Z,85.14
2022-12-19T02:12:43.820Z,85.23
2022-12-19T02:18:17.496Z,85.31
2022-12-19T02:23:28.139Z,85.27
2022-12-19T02:28:55.301Z,85.25
2022-12-19T02:34:23.062Z,85.34
2022-12-19T02:39:47.064Z,85.17
2022-12-19T02:44:52.119Z,84.99
2022-12-19T02:49:54.013Z,85.14
2022-12-19T02:55:01.852Z,85.07
2022-12-19T03:00:17.886Z,85.22
2022-12-19T03:05:32.044Z,85.18
2022-12-19T03:10:54.444Z,85.38
2022-12-19T03:15:58.463Z,85.31
2022-12-19T03:21:12.738Z,85.37
2022-12-19T03:26:37.731Z,85.01
2022-12-19T03:31:40.786Z,85.12
2022-12-19T03:36:51.827Z,84.77
2022-12-19T03:42:13.423Z,84.86
2022-12-19T03:47:32.189Z,84.83
2022-12-19T03:52:47.044Z,84.64
2022-12-19T03:58:12.704Z,84.43
2022-12-19T04:03:19.921Z,84.77
2022-12-19T04:08:24.044Z,84.86
2022-12-19T04:13:41.300Z,84.79
2022-12-19T04:18:53.378Z,84.39
2022-12-19T04:24:02.834Z,83.17
2022-12-19T04:29:07.353Z,81.48
2022-12-19T04:34:09.121Z,81.73
2022-12-19T04:39:10.963Z,82.18
2022-12-19T04:44:12.769Z,83.27
2022-12-19T04:49:14.775Z,83.76
2022-12-19T04:54:16.913Z,83.87
2022-12-19T04:59:18.788Z,84.20
2022-12-19T05:04:20.660Z,84.30
2022-12-19T05:09:22.552Z,84.37
2022-12-19T05:14:24.492Z,84.44
2022-12-19T05:19:26.271Z,84.35
2022-12-19T05:24:28.122Z,84.48
2022-12-19T05:29:29.948Z,84.32
2022-12-19T05:34:32.238Z,84.41
2022-12-19T05:39:35.016Z,84.67
2022-12-19T05:44:36.788Z,84.63
2022-12-19T05:49:38.642Z,84.63
2022-12-19T05:54:40.560Z,84.64
2022-12-19T05:59:42.458Z,84.33
2022-12-19T06:04:44.369Z,84.49
2022-12-19T06:09:46.227Z,84.23
2022-12-19T06:14:48.065Z,84.34
2022-12-19T06:19:49.862Z,84.26
2022-12-19T06:24:51.622Z,84.27
2022-12-19T06:29:53.615Z,84.21
2022-12-19T06:35:04.155Z,83.99
2022-12-19T06:40:07.612Z,83.84
2022-12-19T06:45:09.954Z,83.61
2022-12-19T06:50:11.805Z,83.55
2022-12-19T06:55:13.846Z,83.35
2022-12-19T07:00:16.934Z,83.55
2022-12-19T07:05:19.256Z,83.65
2022-12-19T07:10:21.055Z,83.58
2022-12-19T07:15:23.937Z,83.47
2022-12-19T07:20:28.391Z,83.79
2022-12-19T07:25:30.354Z,84.22
2022-12-19T07:30:32.138Z,84.45
2022-12-19T07:35:34.051Z,84.79
2022-12-19T07:40:36.334Z,85.07
2022-12-19T07:45:38.499Z,85.30
2022-12-19T07:50:41.797Z,85.37
2022-12-19T07:55:43.684Z,85.42
2022-12-19T08:00:45.595Z,85.53
2022-12-19T08:05:47.465Z,85.61
2022-12-19T08:10:49.341Z,85.60
2022-12-19T08:15:51.265Z,85.81
2022-12-19T08:20:53.753Z,85.81
2022-12-19T08:26:03.889Z,85.17
2022-12-19T08:31:11.553Z,82.97
2022-12-19T08:36:16.064Z,81.82
2022-12-19T08:41:18.515Z,80.94
2022-12-19T08:46:21.344Z,81.40
2022-12-19T08:51:23.347Z,79.94
2022-12-19T08:56:25.226Z,79.68
2022-12-19T09:01:27.102Z,81.78
2022-12-19T09:06:29.241Z,82.00
2022-12-19T09:11:31.441Z,82.03
2022-12-19T09:16:33.263Z,81.25
2022-12-19T09:21:35.080Z,81.81
2022-12-19T09:26:39.391Z,81.79
2022-12-19T09:31:41.338Z,82.91
2022-12-19T09:36:43.148Z,82.20
2022-12-19T09:42:02.449Z,82.29
2022-12-19T09:47:13.375Z,82.39
2022-12-19T09:52:36.024Z,83.24
2022-12-19T09:57:50.060Z,83.62
2022-12-19T10:03:17.028Z,84.23
2022-12-19T10:08:31.695Z,84.52
2022-12-19T10:13:53.109Z,84.60
2022-12-19T10:19:00.391Z,84.95
2022-12-19T10:24:38.948Z,84.59
2022-12-19T10:30:02.138Z,84.85
2022-12-19T10:35:14.491Z,85.36
2022-12-19T10:40:34.780Z,84.75
2022-12-19T10:45:39.852Z,82.67
2022-12-19T10:50:42.794Z,82.51
2022-12-19T10:55:50.856Z,82.82
2022-12-19T11:01:40.341Z,83.09
2022-12-19T11:06:51.841Z,83.35
2022-12-19T11:15:48.716Z,83.20
2022-12-19T11:27:28.824Z,82.56
2022-12-19T11:30:05.170Z,81.95
2022-12-19T11:30:46.257Z,81.37
2022-12-19T11:34:02.798Z,81.15
2022-12-19T11:39:10.788Z,81.00
2022-12-19T11:44:41.720Z,80.75
2022-12-19T11:50:11.784Z,80.69
2022-12-19T11:55:45.441Z,80.10
2022-12-19T12:00:58.477Z,78.35
2022-12-19T12:06:01.192Z,77.08
2022-12-19T12:19:18.858Z,76.28
2022-12-19T12:31:26.256Z,75.55
2022-12-19T12:31:28.730Z,75.98
2022-12-19T12:32:00.975Z,75.52
2022-12-19T12:35:48.608Z,73.85
2022-12-19T12:40:40.023Z,77.98
2022-12-19T12:45:45.047Z,76.64
2022-12-19T12:50:54.863Z,76.61
2022-12-19T12:56:00.823Z,76.11
2022-12-19T13:01:29.730Z,76.38
2022-12-19T13:06:40.059Z,74.39
2022-12-19T13:12:22.080Z,73.53
2022-12-19T13:17:32.943Z,73.60
2022-12-19T13:22:34.658Z,73.66
2022-12-19T13:27:47.850Z,74.00
2022-12-19T13:32:49.582Z,73.97
2022-12-19T13:39:55.641Z,74.40
2022-12-19T13:43:49.371Z,73.78
2022-12-19T13:48:56.684Z,74.32
2022-12-19T13:54:00.079Z,74.88
2022-12-19T13:59:05.012Z,75.44
2022-12-19T14:04:11.483Z,75.43
2022-12-19T14:11:27.196Z,75.43
2022-12-19T14:15:13.578Z,75.84
2022-12-19T14:22:06.636Z,76.52
2022-12-19T14:28:19.303Z,78.57
2022-12-19T14:31:19.925Z,78.84
2022-12-19T14:36:26.723Z,77.76
2022-12-19T14:41:47.321Z,78.13
2022-12-19T14:52:25.701Z,75.80
2022-12-19T14:54:48.290Z,75.55
2022-12-19T14:58:53.053Z,75.99
2022-12-19T15:04:49.466Z,76.16
2022-12-19T15:10:58.786Z,76.59
2022-12-19T15:14:59.273Z,76.63
2022-12-19T15:20:01.895Z,76.96
2022-12-19T15:25:03.945Z,76.63
2022-12-19T15:30:15.952Z,76.75
2022-12-19T15:35:18.874Z,76.52
2022-12-19T15:40:20.698Z,76.57
2022-12-19T15:45:23.165Z,77.06
2022-12-19T15:50:31.746Z,76.93
2022-12-19T15:55:33.572Z,76.50
2022-12-19T16:00:36.854Z,76.67
2022-12-19T16:05:38.800Z,76.24
2022-12-19T16:10:42.234Z,76.34
2022-12-19T16:15:44.432Z,76.39
2022-12-19T16:20:47.874Z,76.09
2022-12-19T16:25:50.809Z,76.03
2022-12-19T16:30:53.404Z,76.02
2022-12-19T16:36:05.754Z,76.19
2022-12-19T16:41:19.367Z,75.99
2022-12-19T16:46:23.734Z,76.10
2022-12-19T16:51:27.661Z,76.03
2022-12-19T16:56:37.479Z,76.20
2022-12-19T17:01:39.380Z,75.81
2022-12-19T17:06:42.296Z,75.58
2022-12-19T17:11:46.464Z,75.40
2022-12-19T17:16:49.314Z,75.32
2022-12-19T17:21:52.345Z,75.29
2022-12-19T17:26:54.293Z,74.88
2022-12-19T17:31:56.083Z,74.48
2022-12-19T17:37:00.489Z,74.38
2022-12-19T17:42:21.883Z,73.67
2022-12-19T17:47:24.346Z,73.82
2022-12-19T17:52:26.112Z,73.62
2022-12-19T17:57:27.843Z,73.74
2022-12-19T18:02:29.711Z,73.34
2022-12-19T18:07:31.888Z,73.04
2022-12-19T18:12:33.629Z,73.17
2022-12-19T18:17:35.463Z,72.99
2022-12-19T18:22:37.284Z,72.79
2022-12-19T18:27:40.101Z,72.78
2022-12-19T18:32:55.143Z,72.50
2022-12-19T18:38:00.176Z,72.39
2022-12-19T18:43:02.053Z,72.54
2022-12-19T18:48:07.936Z,72.79
2022-12-19T18:53:15.918Z,72.78
2022-12-19T18:58:18.866Z,72.66
2022-12-19T19:03:26.831Z,72.63
2022-12-19T19:08:30.935Z,72.63
2022-12-19T19:13:42.470Z,72.75
2022-12-19T19:18:46.426Z,72.99
2022-12-19T19:24:26.560Z,73.17
2022-12-19T19:29:28.340Z,73.14
2022-12-19T19:34:34.511Z,73.31
2022-12-19T19:39:36.329Z,73.41
2022-12-19T19:44:38.140Z,73.54
2022-12-19T19:49:40.064Z,73.41
2022-12-19T19:54:41.954Z,73.53
2022-12-19T19:59:44.755Z,73.86
2022-12-19T20:04:46.650Z,73.35
2022-12-19T20:09:48.373Z,73.52
2022-12-19T20:14:50.293Z,73.76
2022-12-19T20:19:52.210Z,73.99
2022-12-19T20:24:54.102Z,73.62
2022-12-19T20:29:56.800Z,73.78
2022-12-19T20:34:58.888Z,74.13
2022-12-19T20:40:02.248Z,73.75
2022-12-19T20:45:04.361Z,73.97
2022-12-19T20:50:07.591Z,74.04
2022-12-19T20:55:10.892Z,73.88
2022-12-19T21:00:14.796Z,73.81
2022-12-19T21:05:17.406Z,73.86
2022-12-19T21:10:20.554Z,73.87
2022-12-19T21:15:22.297Z,73.93
2022-12-19T21:20:28.215Z,73.72
2022-12-19T21:25:34.292Z,73.91
2022-12-19T21:30:36.163Z,73.65
2022-12-19T21:35:38.081Z,73.65
2022-12-19T21:40:39.978Z,73.67
2022-12-19T21:45:41.808Z,73.73
2022-12-19T21:50:43.622Z,73.84
2022-12-19T21:55:45.513Z,73.87
2022-12-19T22:00:47.311Z,73.96
2022-12-19T22:05:49.222Z,73.99
2022-12-19T22:10:51.450Z,74.31
2022-12-19T22:15:59.203Z,74.32
2022-12-19T22:21:01.245Z,74.13
2022-12-19T22:26:06.027Z,74.35
2022-12-19T22:31:24.454Z,74.85
2022-12-19T22:36:28.977Z,74.55
2022-12-19T22:41:33.101Z,74.66
2022-12-19T22:46:37.159Z,74.34
2022-12-19T22:51:39.850Z,74.43
2022-12-19T22:56:42.269Z,74.20
2022-12-19T23:01:44.399Z,73.91
2022-12-19T23:06:46.499Z,74.04
2022-12-19T23:11:49.469Z,73.95
2022-12-19T23:16:51.445Z,74.08
2022-12-19T23:21:53.519Z,74.24
2022-12-19T23:26:55.439Z,74.01
2022-12-19T23:31:57.343Z,74.21
2022-12-19T23:37:10.639Z,74.23
2022-12-19T23:42:12.991Z,74.53
2022-12-19T23:47:15.149Z,74.90
2022-12-19T23:52:16.871Z,75.10
2022-12-19T23:57:18.625Z,75.20
